createdAt,value
2022-12-14T00:01:56.523Z,20.90
2022-12-14T00:04:24.486Z,20.90
2022-12-14T00:06:52.679Z,20.90
2022-12-14T00:09:20.723Z,20.90
2022-12-14T00:11:50.174Z,20.90
2022-12-14T00:14:17.951Z,20.90
2022-12-14T00:16:45.830Z,20.90
2022-12-14T00:19:14.260Z,20.90
2022-12-14T00:21:41.994Z,20.90
2022-12-14T00:24:10.682Z,20.90
2022-12-14T00:26:38.572Z,20.90
2022-12-14T00:29:06.654Z,20.90
2022-12-14T00:31:34.748Z,20.90
2022-12-14T00:34:02.750Z,20.90
2022-12-14T00:36:31.855Z,20.90
2022-12-14T00:39:00.159Z,20.80
2022-12-14T00:41:28.061Z,20.90
2022-12-14T00:43:56.054Z,20.90
2022-12-14T00:46:24.101Z,20.80
2022-12-14T00:48:52.899Z,20.90
2022-12-14T00:51:20.770Z,20.90
2022-12-14T00:53:48.565Z,20.90
2022-12-14T00:56:16.425Z,20.90
2022-12-14T00:58:44.264Z,20.90
2022-12-14T01:01:15.867Z,20.90
2022-12-14T01:03:43.975Z,20.90
2022-12-14T01:06:17.444Z,20.90
2022-12-14T01:08:45.713Z,20.80
2022-12-14T01:11:14.591Z,20.80
2022-12-14T01:13:42.684Z,20.80
2022-12-14T01:16:15.289Z,20.80
2022-12-14T01:18:43.915Z,20.80
2022-12-14T01:21:23.151Z,20.80
2022-12-14T01:23:56.748Z,20.80
2022-12-14T01:26:26.393Z,20.80
2022-12-14T01:28:57.483Z,20.80
2022-12-14T01:31:37.276Z,20.80
2022-12-14T01:34:06.320Z,20.80
2022-12-14T01:36:36.053Z,20.80
2022-12-14T01:39:13.865Z,20.90
2022-12-14T01:41:49.666Z,20.90
2022-12-14T01:44:17.836Z,20.80
2022-12-14T01:46:50.583Z,20.80
2022-12-14T01:49:21.198Z,20.90
2022-12-14T01:52:02.733Z,20.80
2022-12-14T01:54:33.114Z,20.80
2022-12-14T01:57:01.341Z,20.80
2022-12-14T01:59:34.078Z,20.80
2022-12-14T02:02:06.877Z,20.80
2022-12-14T02:04:40.067Z,20.90
2022-12-14T02:07:08.503Z,20.80
2022-12-14T02:09:40.410Z,20.90
2022-12-14T02:12:20.028Z,20.80
2022-12-14T02:14:48.501Z,20.80
2022-12-14T02:17:17.988Z,20.90
2022-12-14T02:19:47.098Z,20.90
2022-12-14T02:22:36.577Z,20.90
2022-12-14T02:25:41.605Z,20.80
2022-12-14T02:28:50.232Z,20.90
2022-12-14T02:32:07.859Z,20.90
2022-12-14T02:34:38.813Z,20.80
2022-12-14T02:37:22.499Z,20.90
2022-12-14T02:40:01.182Z,20.80
2022-12-14T02:43:17.674Z,20.90
2022-12-14T02:45:56.458Z,20.90
2022-12-14T02:48:30.737Z,20.90
2022-12-14T02:51:11.094Z,20.90
2022-12-14T02:53:57.284Z,20.90
2022-12-14T02:56:33.907Z,20.90
2022-12-14T02:59:03.108Z,20.90
2022-12-14T03:01:32.751Z,20.90
2022-12-14T03:04:01.401Z,20.90
2022-12-14T03:06:30.183Z,20.90
2022-12-14T03:09:13.312Z,20.90
2022-12-14T03:11:52.813Z,20.90
2022-12-14T03:14:29.922Z,20.90
2022-12-14T03:17:04.282Z,20.90
2022-12-14T03:19:40.630Z,20.90
2022-12-14T03:22:16.390Z,20.90
2022-12-14T03:24:49.763Z,20.90
2022-12-14T03:27:25.403Z,20.90
2022-12-14T03:30:13.216Z,20.80
2022-12-14T03:32:55.777Z,20.80
2022-12-14T03:35:28.762Z,20.80
2022-12-14T03:38:06.701Z,20.90
2022-12-14T03:40:42.059Z,20.90
2022-12-14T03:43:38.080Z,20.90
2022-12-14T03:46:26.753Z,20.90
2022-12-14T03:49:14.164Z,20.80
2022-12-14T03:52:05.702Z,20.90
2022-12-14T03:54:52.113Z,20.90
2022-12-14T03:57:35.285Z,20.80
2022-12-14T04:00:10.685Z,20.90
2022-12-14T04:02:53.902Z,20.80
2022-12-14T04:05:32.897Z,20.90
2022-12-14T04:08:11.602Z,20.90
2022-12-14T04:11:05.853Z,20.90
2022-12-14T04:14:00.135Z,20.90
2022-12-14T04:16:54.374Z,20.80
2022-12-14T04:19:32.100Z,20.80
2022-12-14T04:22:06.690Z,20.80
2022-12-14T04:24:56.321Z,20.80
2022-12-14T04:28:05.378Z,20.80
2022-12-14T04:30:39.107Z,20.70
2022-12-14T04:33:29.148Z,20.80
2022-12-14T04:36:00.891Z,20.80
2022-12-14T04:38:37.977Z,20.80
2022-12-14T04:41:12.047Z,20.80
2022-12-14T04:43:41.797Z,20.80
2022-12-14T04:46:14.123Z,20.70
2022-12-14T04:48:59.943Z,20.80
2022-12-14T04:51:53.345Z,20.80
2022-12-14T04:54:21.950Z,20.80
2022-12-14T04:57:01.387Z,20.80
2022-12-14T04:59:29.637Z,20.70
2022-12-14T05:02:30.980Z,20.70
2022-12-14T05:05:40.163Z,20.70
2022-12-14T05:08:11.768Z,20.80
2022-12-14T05:11:30.457Z,21.20
2022-12-14T05:13:55.881Z,21.30
2022-12-14T05:16:25.181Z,21.50
2022-12-14T05:18:53.263Z,21.50
2022-12-14T05:21:39.832Z,21.60
2022-12-14T05:24:08.319Z,21.70
2022-12-14T05:26:36.277Z,21.70
2022-12-14T05:29:04.814Z,21.70
2022-12-14T05:31:32.817Z,21.70
2022-12-14T05:34:00.857Z,21.80
2022-12-14T05:36:29.182Z,21.80
2022-12-14T05:38:57.073Z,21.80
2022-12-14T05:41:25.233Z,21.80
2022-12-14T05:43:53.303Z,21.80
2022-12-14T05:46:21.238Z,21.90
2022-12-14T05:48:49.681Z,21.90
2022-12-14T05:51:18.498Z,21.90
2022-12-14T05:53:46.645Z,22.00
2022-12-14T05:56:14.889Z,22.00
2022-12-14T05:58:43.110Z,22.00
2022-12-14T06:01:17.177Z,22.00
2022-12-14T06:03:47.750Z,22.00
2022-12-14T06:06:15.769Z,22.10
2022-12-14T06:08:46.554Z,22.10
2022-12-14T06:11:17.087Z,22.10
2022-12-14T06:13:45.814Z,22.10
2022-12-14T06:16:22.861Z,22.10
2022-12-14T06:18:55.944Z,22.20
2022-12-14T06:21:27.276Z,22.10
2022-12-14T06:23:56.132Z,22.10
2022-12-14T06:26:25.942Z,22.20
2022-12-14T06:28:55.099Z,22.20
2022-12-14T06:31:25.895Z,21.70
2022-12-14T06:33:55.163Z,15.50
2022-12-14T06:36:26.857Z,13.30
2022-12-14T06:38:55.992Z,15.20
2022-12-14T06:41:24.971Z,17.10
2022-12-14T06:43:54.677Z,18.40
2022-12-14T06:46:24.184Z,19.20
2022-12-14T06:48:54.439Z,19.70
2022-12-14T06:51:24.432Z,20.10
2022-12-14T06:53:54.368Z,20.30
2022-12-14T06:56:24.105Z,20.60
2022-12-14T06:58:54.054Z,20.80
2022-12-14T07:01:24.230Z,20.80
2022-12-14T07:03:55.038Z,20.90
2022-12-14T07:06:24.925Z,20.90
2022-12-14T07:08:55.294Z,21.10
2022-12-14T07:11:24.238Z,21.20
2022-12-14T07:13:52.906Z,21.30
2022-12-14T07:16:26.306Z,21.30
2022-12-14T07:18:55.405Z,21.40
2022-12-14T07:21:24.540Z,21.50
2022-12-14T07:23:53.818Z,21.50
2022-12-14T07:26:25.338Z,21.60
2022-12-14T07:28:54.450Z,21.70
2022-12-14T07:31:25.297Z,21.80
2022-12-14T07:33:56.931Z,21.80
2022-12-14T07:36:27.147Z,21.90
2022-12-14T07:38:56.498Z,22.00
2022-12-14T07:41:31.761Z,22.00
2022-12-14T07:44:01.437Z,22.00
2022-12-14T07:46:33.998Z,22.10
2022-12-14T07:49:03.348Z,22.20
2022-12-14T07:51:34.438Z,22.30
2022-12-14T07:54:04.312Z,22.30
2022-12-14T07:56:37.561Z,22.40
2022-12-14T07:59:08.730Z,22.40
2022-12-14T08:01:38.256Z,22.50
2022-12-14T08:04:07.934Z,22.50
2022-12-14T08:06:37.016Z,22.60
2022-12-14T08:09:06.280Z,22.60
2022-12-14T08:11:35.166Z,22.60
2022-12-14T08:14:06.519Z,22.60
2022-12-14T08:16:34.934Z,22.70
2022-12-14T08:19:03.822Z,22.70
2022-12-14T08:21:31.982Z,22.70
2022-12-14T08:24:00.401Z,22.80
2022-12-14T08:26:35.292Z,22.80
2022-12-14T08:29:05.492Z,22.80
2022-12-14T08:31:34.720Z,22.90
2022-12-14T08:34:03.265Z,22.90
2022-12-14T08:36:34.556Z,23.00
2022-12-14T08:39:08.648Z,23.10
2022-12-14T08:41:36.734Z,23.00
2022-12-14T08:44:05.479Z,23.10
2022-12-14T08:46:35.104Z,23.20
2022-12-14T08:49:04.186Z,23.20
2022-12-14T08:51:32.523Z,23.20
2022-12-14T08:54:00.730Z,23.20
2022-12-14T08:56:29.448Z,23.30
2022-12-14T08:58:57.975Z,23.30
2022-12-14T09:01:33.590Z,23.30
2022-12-14T09:04:08.080Z,23.40
2022-12-14T09:06:38.649Z,23.40
2022-12-14T09:09:15.237Z,23.50
2022-12-14T09:11:45.546Z,23.50
2022-12-14T09:14:14.014Z,23.50
2022-12-14T09:16:42.420Z,23.60
2022-12-14T09:19:10.920Z,23.60
2022-12-14T09:21:40.222Z,23.70
2022-12-14T09:24:10.912Z,23.70
2022-12-14T09:26:39.020Z,23.80
2022-12-14T09:29:07.206Z,23.80
2022-12-14T09:31:35.550Z,23.80
2022-12-14T09:34:04.302Z,23.80
2022-12-14T09:36:32.957Z,23.90
2022-12-14T09:39:01.433Z,24.00
2022-12-14T09:41:35.507Z,24.00
2022-12-14T09:44:19.149Z,24.10
2022-12-14T09:46:53.281Z,24.10
2022-12-14T09:49:27.824Z,24.20
2022-12-14T09:52:02.035Z,24.20
2022-12-14T09:54:38.874Z,24.20
2022-12-14T09:57:22.299Z,24.20
2022-12-14T09:59:53.121Z,24.30
2022-12-14T10:02:40.362Z,24.30
2022-12-14T10:05:33.216Z,24.30
2022-12-14T10:08:10.915Z,24.40
2022-12-14T10:10:47.976Z,24.40
2022-12-14T10:13:36.720Z,24.40
2022-12-14T10:16:28.828Z,24.40
2022-12-14T10:19:04.452Z,24.50
2022-12-14T10:21:46.546Z,24.50
2022-12-14T10:24:36.582Z,24.70
2022-12-14T10:27:09.199Z,24.60
2022-12-14T10:29:43.585Z,24.50
2022-12-14T10:32:14.598Z,24.50
2022-12-14T10:34:46.109Z,24.40
2022-12-14T10:37:23.137Z,24.30
2022-12-14T10:40:24.760Z,24.30
2022-12-14T10:43:43.515Z,24.30
2022-12-14T10:46:18.984Z,24.30
2022-12-14T10:48:53.715Z,24.40
2022-12-14T10:51:42.793Z,24.30
2022-12-14T10:54:29.174Z,24.40
2022-12-14T10:56:57.692Z,24.30
2022-12-14T10:59:32.219Z,24.20
2022-12-14T11:02:35.694Z,24.10
2022-12-14T11:05:14.971Z,23.90
2022-12-14T11:07:46.021Z,23.90
2022-12-14T11:10:21.917Z,23.80
2022-12-14T11:13:12.931Z,23.80
2022-12-14T11:15:45.632Z,23.70
2022-12-14T11:18:16.802Z,23.70
2022-12-14T11:20:50.962Z,23.70
2022-12-14T11:23:29.921Z,23.60
2022-12-14T11:26:04.034Z,23.60
2022-12-14T11:28:38.661Z,23.60
2022-12-14T11:31:13.549Z,23.60
2022-12-14T11:33:50.216Z,23.50
2022-12-14T11:36:33.584Z,23.50
2022-12-14T11:39:13.665Z,23.30
2022-12-14T11:41:43.506Z,23.20
2022-12-14T11:44:26.438Z,23.20
2022-12-14T11:47:21.932Z,23.10
2022-12-14T11:49:54.854Z,23.00
2022-12-14T11:52:40.734Z,23.00
2022-12-14T11:55:26.173Z,22.90
2022-12-14T11:57:59.937Z,22.90
2022-12-14T12:00:46.821Z,22.80
2022-12-14T12:03:29.190Z,22.80
2022-12-14T12:06:06.229Z,22.80
2022-12-14T12:08:38.414Z,22.80
2022-12-14T12:11:25.279Z,22.80
2022-12-14T12:14:03.687Z,22.70
2022-12-14T12:16:33.414Z,22.70
2022-12-14T12:19:16.453Z,22.70
2022-12-14T12:21:45.805Z,22.60
2022-12-14T12:24:22.858Z,22.60
2022-12-14T12:27:01.491Z,22.60
2022-12-14T12:29:35.837Z,22.60
2022-12-14T12:32:17.538Z,22.50
2022-12-14T12:35:11.962Z,22.50
2022-12-14T12:38:04.428Z,22.50
2022-12-14T12:40:40.809Z,22.60
2022-12-14T12:43:26.435Z,22.60
2022-12-14T12:46:06.549Z,22.60
2022-12-14T12:48:45.521Z,22.60
2022-12-14T12:51:23.516Z,22.50
2022-12-14T12:53:59.216Z,22.60
2022-12-14T12:56:38.130Z,22.70
2022-12-14T12:59:07.261Z,22.70
2022-12-14T13:01:42.837Z,22.80
2022-12-14T13:04:27.984Z,22.80
2022-12-14T13:07:34.565Z,22.80
2022-12-14T13:10:14.327Z,22.80
2022-12-14T13:12:54.493Z,22.80
2022-12-14T13:15:28.642Z,22.80
2022-12-14T13:18:12.265Z,22.80
2022-12-14T13:20:40.829Z,22.80
2022-12-14T13:23:43.152Z,22.80
2022-12-14T13:26:55.788Z,22.80
2022-12-14T13:29:29.833Z,22.80
2022-12-14T13:32:14.557Z,22.80
2022-12-14T13:34:43.252Z,22.80
2022-12-14T13:37:42.858Z,22.70
2022-12-14T13:40:17.102Z,22.60
2022-12-14T13:43:17.801Z,22.60
2022-12-14T13:45:49.874Z,22.50
2022-12-14T13:48:27.676Z,22.50
2022-12-14T13:51:24.929Z,22.40
2022-12-14T13:53:57.309Z,22.40
2022-12-14T13:56:33.559Z,22.40
2022-12-14T13:59:18.172Z,22.40
2022-12-14T14:01:49.212Z,22.30
2022-12-14T14:04:23.565Z,22.30
2022-12-14T14:06:53.981Z,22.30
2022-12-14T14:09:34.922Z,22.30
2022-12-14T14:12:24.313Z,22.30
2022-12-14T14:15:11.532Z,22.30
2022-12-14T14:17:43.111Z,22.30
2022-12-14T14:20:53.912Z,22.30
2022-12-14T14:23:30.582Z,22.20
2022-12-14T14:26:19.286Z,22.20
2022-12-14T14:28:52.797Z,22.20
2022-12-14T14:31:22.701Z,22.10
2022-12-14T14:33:55.962Z,22.20
2022-12-14T14:36:33.891Z,22.10
2022-12-14T14:39:38.402Z,22.10
2022-12-14T14:41:58.081Z,22.10
2022-12-14T14:44:49.451Z,22.10
2022-12-14T14:47:31.874Z,22.10
2022-12-14T14:50:16.743Z,22.10
2022-12-14T14:52:59.571Z,22.10
2022-12-14T14:55:52.611Z,22.10
2022-12-14T14:58:33.419Z,22.00
2022-12-14T15:01:20.509Z,22.00
2022-12-14T15:04:06.222Z,22.00
2022-12-14T15:06:47.356Z,22.00
2022-12-14T15:09:26.897Z,22.00
2022-12-14T15:12:07.690Z,22.00
2022-12-14T15:14:48.794Z,21.90
2022-12-14T15:17:19.949Z,22.00
2022-12-14T15:19:59.459Z,21.90
2022-12-14T15:22:31.460Z,21.90
2022-12-14T15:25:01.209Z,21.90
2022-12-14T15:27:37.218Z,21.90
2022-12-14T15:30:11.287Z,21.90
2022-12-14T15:32:49.816Z,21.90
2022-12-14T15:35:23.014Z,21.80
2022-12-14T15:38:17.039Z,21.80
2022-12-14T15:40:55.456Z,21.80
2022-12-14T15:43:24.802Z,21.80
2022-12-14T15:45:56.132Z,21.80
2022-12-14T15:48:31.221Z,21.80
2022-12-14T15:51:03.534Z,21.80
2022-12-14T15:53:41.108Z,21.80
2022-12-14T15:56:30.187Z,21.80
2022-12-14T15:59:24.454Z,21.80
2022-12-14T16:02:16.191Z,21.80
2022-12-14T16:04:46.105Z,21.80
2022-12-14T16:07:33.647Z,21.80
2022-12-14T16:10:04.233Z,21.80
2022-12-14T16:12:47.603Z,21.80
2022-12-14T16:15:25.430Z,21.80
2022-12-14T16:18:01.510Z,21.70
2022-12-14T16:20:34.028Z,21.70
2022-12-14T16:23:07.023Z,21.80
2022-12-14T16:25:36.891Z,21.70
2022-12-14T16:28:33.151Z,21.70
2022-12-14T16:31:06.788Z,21.80
2022-12-14T16:33:36.790Z,21.80
2022-12-14T16:36:08.342Z,21.80
2022-12-14T16:39:01.613Z,21.80
2022-12-14T16:41:42.618Z,21.80
2022-12-14T16:44:22.140Z,21.70
2022-12-14T16:47:04.938Z,21.70
2022-12-14T16:49:41.770Z,21.70
2022-12-14T16:52:36.957Z,21.70
2022-12-14T16:55:19.219Z,21.70
2022-12-14T16:57:54.522Z,21.70
2022-12-14T17:00:22.795Z,21.70
2022-12-14T17:03:30.959Z,21.60
2022-12-14T17:06:01.875Z,21.70
2022-12-14T17:08:31.280Z,21.60
2022-12-14T17:11:00.046Z,21.70
2022-12-14T17:13:28.791Z,21.70
2022-12-14T17:16:03.933Z,21.60
2022-12-14T17:18:35.529Z,21.60
2022-12-14T17:21:06.001Z,21.60
2022-12-14T17:23:37.279Z,21.60
2022-12-14T17:26:05.550Z,21.60
2022-12-14T17:28:34.760Z,21.60
2022-12-14T17:31:03.703Z,21.50
2022-12-14T17:33:32.453Z,21.50
2022-12-14T17:36:00.823Z,21.50
2022-12-14T17:38:28.793Z,21.50
2022-12-14T17:40:57.102Z,21.50
2022-12-14T17:43:28.224Z,21.50
2022-12-14T17:46:01.483Z,21.50
2022-12-14T17:48:29.797Z,21.50
2022-12-14T17:50:57.982Z,21.50
2022-12-14T17:53:30.682Z,21.50
2022-12-14T17:55:59.204Z,21.50
2022-12-14T17:58:27.165Z,21.50
2022-12-14T18:01:01.477Z,21.40
2022-12-14T18:03:33.032Z,21.40
2022-12-14T18:06:02.460Z,21.40
2022-12-14T18:08:30.501Z,21.40
2022-12-14T18:11:02.193Z,21.40
2022-12-14T18:13:33.534Z,21.50
2022-12-14T18:16:01.953Z,21.40
2022-12-14T18:18:30.052Z,21.50
2022-12-14T18:21:01.085Z,21.40
2022-12-14T18:23:31.072Z,21.50
2022-12-14T18:26:02.778Z,21.50
2022-12-14T18:28:31.001Z,21.40
2022-12-14T18:31:07.694Z,21.50
2022-12-14T18:33:35.981Z,21.50
2022-12-14T18:36:04.247Z,21.40
2022-12-14T18:38:32.221Z,21.40
2022-12-14T18:41:02.899Z,21.40
2022-12-14T18:43:33.238Z,21.40
2022-12-14T18:46:02.284Z,21.40
2022-12-14T18:48:30.723Z,21.40
2022-12-14T18:50:58.802Z,21.40
2022-12-14T18:53:27.586Z,21.40
2022-12-14T18:55:56.384Z,21.30
2022-12-14T18:58:26.972Z,21.40
2022-12-14T19:00:57.708Z,21.40
2022-12-14T19:03:27.400Z,21.30
2022-12-14T19:06:43.129Z,21.30
2022-12-14T19:08:59.618Z,21.30
2022-12-14T19:11:39.012Z,21.30
2022-12-14T19:14:07.200Z,21.30
2022-12-14T19:16:35.215Z,21.30
2022-12-14T19:19:03.775Z,21.30
2022-12-14T19:21:31.931Z,21.30
2022-12-14T19:24:01.723Z,21.30
2022-12-14T19:26:30.834Z,21.30
2022-12-14T19:28:58.914Z,21.30
2022-12-14T19:31:27.415Z,21.30
2022-12-14T19:33:56.459Z,21.30
2022-12-14T19:36:24.842Z,21.30
2022-12-14T19:38:52.936Z,21.30
2022-12-14T19:41:21.691Z,21.30
2022-12-14T19:43:50.299Z,21.30
2022-12-14T19:46:18.688Z,21.30
2022-12-14T19:48:46.937Z,21.30
2022-12-14T19:51:15.515Z,21.30
2022-12-14T19:53:44.732Z,21.30
2022-12-14T19:56:17.146Z,21.30
2022-12-14T19:58:47.777Z,21.30
2022-12-14T20:01:18.880Z,21.30
2022-12-14T20:03:49.250Z,21.30
2022-12-14T20:06:17.515Z,21.30
2022-12-14T20:08:49.175Z,21.30
2022-12-14T20:11:17.455Z,21.30
2022-12-14T20:13:45.783Z,21.30
2022-12-14T20:16:18.159Z,21.30
2022-12-14T20:18:48.535Z,21.30
2022-12-14T20:21:21.850Z,21.20
2022-12-14T20:23:53.501Z,21.30
2022-12-14T20:26:22.227Z,21.20
2022-12-14T20:28:52.220Z,21.30
2022-12-14T20:31:22.522Z,21.30
2022-12-14T20:33:52.614Z,21.20
2022-12-14T20:36:22.449Z,21.30
2022-12-14T20:38:55.005Z,21.20
2022-12-14T20:41:23.157Z,21.30
2022-12-14T20:43:51.693Z,21.20
2022-12-14T20:46:27.585Z,21.30
2022-12-14T20:48:56.699Z,21.20
2022-12-14T20:51:24.913Z,21.20
2022-12-14T20:53:53.063Z,21.20
2022-12-14T20:56:21.664Z,21.20
2022-12-14T20:58:49.771Z,21.20
2022-12-14T21:01:19.624Z,21.20
2022-12-14T21:03:49.331Z,21.20
2022-12-14T21:06:20.122Z,21.20
2022-12-14T21:09:07.640Z,21.30
2022-12-14T21:11:55.180Z,21.20
2022-12-14T21:14:25.800Z,21.20
2022-12-14T21:16:54.048Z,21.20
2022-12-14T21:19:23.215Z,21.20
2022-12-14T21:21:53.871Z,21.20
2022-12-14T21:25:02.545Z,21.20
2022-12-14T21:27:18.713Z,21.20
2022-12-14T21:29:47.150Z,21.20
2022-12-14T21:32:16.665Z,21.10
2022-12-14T21:34:45.534Z,21.20
2022-12-14T21:37:13.838Z,21.20
2022-12-14T21:39:42.681Z,21.10
2022-12-14T21:42:15.691Z,21.10
2022-12-14T21:44:45.817Z,21.20
2022-12-14T21:47:17.445Z,21.10
2022-12-14T21:49:46.131Z,21.10
2022-12-14T21:52:16.770Z,21.20
2022-12-14T21:54:45.076Z,21.10
2022-12-14T21:57:37.025Z,21.10
2022-12-14T22:00:07.141Z,21.10
2022-12-14T22:02:42.073Z,21.10
2022-12-14T22:05:10.914Z,21.10
2022-12-14T22:07:38.913Z,21.10
2022-12-14T22:10:07.332Z,21.10
2022-12-14T22:12:35.292Z,21.10
2022-12-14T22:15:03.467Z,21.20
2022-12-14T22:17:31.689Z,21.10
2022-12-14T22:19:59.812Z,21.10
2022-12-14T22:22:27.819Z,21.10
2022-12-14T22:24:55.740Z,21.10
2022-12-14T22:27:23.669Z,21.10
2022-12-14T22:29:51.716Z,21.10
2022-12-14T22:32:19.658Z,21.10
2022-12-14T22:34:47.802Z,21.10
2022-12-14T22:37:16.916Z,21.10
2022-12-14T22:39:48.258Z,21.10
2022-12-14T22:42:16.644Z,21.10
2022-12-14T22:44:45.209Z,21.10
2022-12-14T22:47:13.189Z,21.10
2022-12-14T22:49:41.116Z,21.10
2022-12-14T22:52:09.534Z,21.00
2022-12-14T22:54:39.308Z,21.10
2022-12-14T22:57:16.620Z,21.00
2022-12-14T22:59:51.604Z,21.00
2022-12-14T23:02:19.602Z,21.00
2022-12-14T23:04:50.084Z,21.00
2022-12-14T23:07:18.166Z,21.00
2022-12-14T23:10:04.523Z,21.00
2022-12-14T23:12:51.307Z,21.00
2022-12-14T23:15:37.611Z,21.00
2022-12-14T23:18:25.486Z,21.00
2022-12-14T23:21:12.729Z,21.00
2022-12-14T23:24:01.015Z,21.00
2022-12-14T23:26:47.578Z,21.00
2022-12-14T23:29:34.247Z,21.00
2022-12-14T23:32:20.574Z,21.00
2022-12-14T23:35:06.972Z,21.00
2022-12-14T23:37:53.498Z,21.00
2022-12-14T23:40:40.158Z,21.00
2022-12-14T23:43:28.995Z,21.00
2022-12-14T23:46:18.036Z,21.00
2022-12-14T23:49:04.550Z,21.00
2022-12-14T23:51:50.908Z,21.00
2022-12-14T23:54:37.450Z,20.90
2022-12-14T23:57:26.057Z,21.00
